Time;durP1;ratioP1;P1;durP2;ratioP2;P2;SDS_P1;SDS_P2;PMS_P1;PMS_P2;Temp;Humidity;BMP_temperature;BMP_pressure;BME280_temperature;BME280_humidity;BME280_pressure;Samples;Min_cycle;Max_cycle;Signal;HPM_P1;HPM_P2
2022/01/30 00:01:39;;;;;;;5.53;2.85;;;;;;;0.43;72.19;100608.14;1709378;84;20896;-76
2022/01/30 00:04:06;;;;;;;5.08;2.98;;;;;;;0.39;72.18;100602.17;1708823;84;21543;-74
2022/01/30 00:06:33;;;;;;;6.55;3.10;;;;;;;0.39;72.17;100597.02;1709455;82;21028;-76
2022/01/30 00:09:00;;;;;;;5.87;3.25;;;;;;;0.38;72.23;100599.20;1709029;84;20903;-77
2022/01/30 00:11:32;;;;;;;6.53;3.52;;;;;;;0.38;72.14;100592.75;1708882;82;21485;-76
2022/01/30 00:13:57;;;;;;;5.60;3.10;;;;;;;0.37;72.05;100592.33;1708606;83;20887;-75
2022/01/30 00:16:31;;;;;;;9.98;3.55;;;;;;;0.36;72.00;100579.03;1708981;84;20972;-76
2022/01/30 00:21:39;;;;;;;7.12;3.92;;;;;;;0.35;72.04;100576.86;1708931;84;20931;-78
2022/01/30 00:24:27;;;;;;;8.03;3.72;;;;;;;0.35;71.87;100569.13;1707909;82;21339;-75
2022/01/30 00:26:36;;;;;;;10.45;3.25;;;;;;;0.34;71.81;100570.47;1705473;84;21393;-77
2022/01/30 00:29:02;;;;;;;6.40;3.40;;;;;;;0.31;71.87;100563.64;1708903;84;21156;-76
2022/01/30 00:31:30;;;;;;;7.00;3.15;;;;;;;0.30;71.62;100555.92;1708991;82;20889;-76
2022/01/30 00:33:59;;;;;;;8.38;3.80;;;;;;;0.27;71.56;100559.83;1708868;83;20912;-76
2022/01/30 00:36:26;;;;;;;6.80;3.25;;;;;;;0.25;71.60;100554.72;1708988;84;20947;-77
2022/01/30 00:38:53;;;;;;;5.33;3.02;;;;;;;0.24;71.65;100548.30;1708858;82;20916;-76
2022/01/30 00:41:20;;;;;;;5.80;3.37;;;;;;;0.24;71.52;100554.30;1708838;84;21153;-76
2022/01/30 00:43:47;;;;;;;6.97;2.75;;;;;;;0.24;71.50;100543.14;1709095;84;20979;-74
2022/01/30 00:46:15;;;;;;;4.58;3.05;;;;;;;0.23;71.48;100544.88;1709022;82;20991;-76
2022/01/30 00:48:42;;;;;;;5.97;3.42;;;;;;;0.20;71.34;100533.31;1709080;82;20979;-76
2022/01/30 00:51:09;;;;;;;4.35;2.83;;;;;;;0.18;71.26;100529.94;1708759;84;20920;-76
2022/01/30 00:53:37;;;;;;;5.03;3.35;;;;;;;0.16;71.18;100540.72;1708841;84;21989;-76
2022/01/30 00:56:07;;;;;;;5.62;3.92;;;;;;;0.14;71.23;100535.58;1708943;84;20987;-75
2022/01/30 00:58:34;;;;;;;5.83;3.35;;;;;;;0.13;71.13;100527.86;1709077;83;21584;-76
2022/01/30 01:01:02;;;;;;;7.30;3.75;;;;;;;0.13;71.14;100529.16;1708799;82;20996;-75
2022/01/30 01:03:28;;;;;;;5.78;3.22;;;;;;;0.13;71.13;100529.16;1709264;84;20896;-75
2022/01/30 01:05:57;;;;;;;4.80;2.77;;;;;;;0.10;71.27;100523.62;1709117;83;21080;-76
2022/01/30 01:08:34;;;;;;;4.33;2.65;;;;;;;0.07;71.37;100523.69;1708940;82;20948;-76
2022/01/30 01:11:57;;;;;;;11.75;3.37;;;;;;;0.06;71.40;100523.70;1707829;84;20904;-76
2022/01/30 01:24:01;;;;;;;4.62;2.70;;;;;;;-0.01;71.68;100505.77;1708911;82;20983;-76
2022/01/30 01:26:27;;;;;;;3.40;2.80;;;;;;;-0.02;71.59;100514.39;1715422;83;20909;-75
2022/01/30 01:28:54;;;;;;;5.87;3.72;;;;;;;-0.03;71.67;100506.67;1716483;83;20951;-75
2022/01/30 01:31:21;;;;;;;5.12;2.83;;;;;;;-0.01;71.67;100501.05;1716497;83;21211;-75
2022/01/30 01:36:20;;;;;;;3.90;2.35;;;;;;;-0.02;71.67;100499.38;1716452;82;20935;-75
2022/01/30 01:38:48;;;;;;;3.58;2.45;;;;;;;-0.03;71.67;100495.08;1716454;83;20908;-74
2022/01/30 01:41:18;;;;;;;3.60;1.80;;;;;;;-0.04;71.56;100492.95;1716693;83;20979;-75
2022/01/30 01:43:43;;;;;;;3.85;2.10;;;;;;;-0.05;71.66;100484.78;1716347;82;21778;-74
2022/01/30 01:46:17;;;;;;;6.78;2.70;;;;;;;-0.04;71.61;100485.66;1716672;83;20873;-73
2022/01/30 01:48:44;;;;;;;5.20;2.35;;;;;;;-0.08;71.48;100479.70;1716280;82;21484;-73
2022/01/30 01:51:16;;;;;;;4.45;2.77;;;;;;;-0.09;71.55;100481.88;1716592;82;21408;-74
2022/01/30 01:53:43;;;;;;;4.50;2.85;;;;;;;-0.10;71.53;100476.30;1716878;83;20983;-75
2022/01/30 01:56:11;;;;;;;5.12;2.83;;;;;;;-0.10;71.46;100472.43;1716375;82;21125;-76
2022/01/30 01:58:40;;;;;;;4.92;3.00;;;;;;;-0.09;71.36;100466.41;1666841;83;20903;-76
2022/01/30 02:01:26;;;;;;;5.60;3.25;;;;;;;-0.08;71.10;100460.81;1716562;82;20944;-76
2022/01/30 02:03:55;;;;;;;9.50;4.47;;;;;;;-0.09;70.82;100459.97;1716570;83;20911;-77
2022/01/30 02:06:24;;;;;;;7.97;4.10;;;;;;;-0.09;70.83;100456.11;1716640;83;21007;-76
2022/01/30 02:09:01;;;;;;;4.70;3.58;;;;;;;-0.10;70.83;100454.39;1716857;83;21790;-77
2022/01/30 02:11:35;;;;;;;6.55;3.92;;;;;;;-0.11;70.68;100446.67;1716516;83;20892;-76
2022/01/30 02:25:12;;;;;;;7.78;4.50;;;;;;;-0.21;70.64;100427.52;1753270;81;20892;-76
2022/01/30 02:27:33;;;;;;;7.08;4.30;;;;;;;-0.22;70.60;100421.98;1756684;81;20864;-76
2022/01/30 02:29:57;;;;;;;6.40;3.70;;;;;;;-0.23;70.54;100425.41;1757809;81;21038;-77
2022/01/30 02:32:25;;;;;;;11.60;4.30;;;;;;;-0.23;70.35;100420.26;1721960;83;21108;-76
2022/01/30 02:34:53;;;;;;;10.35;4.85;;;;;;;-0.24;70.40;100415.16;1721899;83;22004;-75
2022/01/30 02:37:20;;;;;;;5.67;3.77;;;;;;;-0.25;70.33;100406.55;1721887;83;20879;-76
2022/01/30 02:39:47;;;;;;;4.47;3.22;;;;;;;-0.27;70.48;100408.34;1722218;83;21405;-75
2022/01/30 02:42:18;;;;;;;5.90;3.17;;;;;;;-0.29;70.40;100407.93;1721787;83;20987;-76
2022/01/30 02:44:54;;;;;;;4.70;2.92;;;;;;;-0.31;70.39;100403.24;1721574;83;20880;-75
2022/01/30 02:52:40;;;;;;;5.85;3.55;;;;;;;-0.36;70.11;100386.59;1721772;83;20903;-76
2022/01/30 02:55:09;;;;;;;3.90;2.52;;;;;;;-0.38;70.00;100384.48;1721890;83;21016;-77
2022/01/30 02:57:36;;;;;;;3.20;2.70;;;;;;;-0.37;69.84;100380.20;1721964;83;21357;-74
2022/01/30 03:00:06;;;;;;;3.25;2.22;;;;;;;-0.40;69.54;100381.11;1722105;83;21108;-76
2022/01/30 03:02:32;;;;;;;4.40;2.27;;;;;;;-0.40;69.53;100380.23;1721770;82;21365;-74
2022/01/30 03:05:00;;;;;;;5.70;2.20;;;;;;;-0.41;69.49;100378.11;1721739;83;20899;-74
2022/01/30 03:07:27;;;;;;;2.87;1.90;;;;;;;-0.40;69.43;100359.63;1721695;82;21389;-74
2022/01/30 03:09:56;;;;;;;2.75;2.02;;;;;;;-0.40;69.36;100367.36;1722125;82;21469;-75
2022/01/30 03:12:23;;;;;;;11.25;6.83;;;;;;;-0.40;69.47;100366.94;1695460;83;21475;-74
2022/01/30 03:14:50;;;;;;;4.67;2.67;;;;;;;-0.38;69.30;100365.16;1721728;83;21420;-75
2022/01/30 03:17:19;;;;;;;4.35;2.37;;;;;;;-0.37;69.14;100360.43;1721995;83;20899;-74
2022/01/30 03:19:46;;;;;;;3.83;2.42;;;;;;;-0.38;69.04;100354.85;1721905;82;20925;-76
2022/01/30 03:22:13;;;;;;;4.25;2.58;;;;;;;-0.39;68.86;100349.30;1722120;83;21404;-74
2022/01/30 03:24:40;;;;;;;5.15;2.05;;;;;;;-0.39;68.78;100352.33;1724104;83;21757;-75
2022/01/30 03:27:13;;;;;;;2.92;2.22;;;;;;;-0.38;68.71;100349.70;1718424;82;20896;-76
2022/01/30 03:29:50;;;;;;;2.77;2.10;;;;;;;-0.42;68.33;100348.09;1755181;81;20956;-76
2022/01/30 03:32:13;;;;;;;2.72;2.42;;;;;;;-0.44;67.86;100332.66;1753719;81;20900;-76
2022/01/30 03:34:41;;;;;;;5.78;2.25;;;;;;;-0.43;67.81;100324.48;1753279;82;20916;-75
2022/01/30 03:37:08;;;;;;;5.15;3.10;;;;;;;-0.42;67.41;100333.92;1716861;83;21961;-74
2022/01/30 03:39:35;;;;;;;8.40;4.62;;;;;;;-0.42;67.32;100316.73;1716779;83;20972;-76
2022/01/30 03:42:03;;;;;;;5.55;3.25;;;;;;;-0.43;67.00;100306.00;1716508;82;20971;-76
2022/01/30 03:44:30;;;;;;;3.45;3.10;;;;;;;-0.44;66.67;100300.91;1716419;83;20888;-75
2022/01/30 03:46:56;;;;;;;5.75;3.52;;;;;;;-0.44;66.24;100297.04;1716650;82;20979;-77
2022/01/30 03:49:24;;;;;;;6.35;4.08;;;;;;;-0.45;66.12;100308.20;1716022;83;21145;-77
2022/01/30 03:51:51;;;;;;;7.33;3.70;;;;;;;-0.46;66.00;100298.80;1709101;82;20892;-75
2022/01/30 03:54:19;;;;;;;6.83;4.10;;;;;;;-0.45;65.87;100305.18;1696326;83;20888;-76
2022/01/30 03:56:46;;;;;;;5.75;4.45;;;;;;;-0.43;65.69;100297.44;1696320;84;20979;-76
2022/01/30 03:59:13;;;;;;;8.90;5.17;;;;;;;-0.41;65.63;100300.83;1696354;84;21493;-76
2022/01/30 04:01:41;;;;;;;7.65;5.20;;;;;;;-0.41;65.51;100295.67;1696236;83;21151;-76
2022/01/30 04:04:09;;;;;;;7.80;5.65;;;;;;;-0.41;65.42;100290.52;1696205;83;20921;-76
2022/01/30 04:06:36;;;;;;;8.05;4.53;;;;;;;-0.41;65.47;100286.66;1696208;84;21501;-76
2022/01/30 04:09:05;;;;;;;6.33;4.87;;;;;;;-0.42;65.27;100278.09;1695978;83;20995;-76
2022/01/30 04:11:36;;;;;;;7.22;4.83;;;;;;;-0.43;65.20;100275.54;1696301;84;21145;-75
2022/01/30 04:14:17;;;;;;;5.80;4.83;;;;;;;-0.44;65.13;100266.97;1694677;84;21107;-76
2022/01/30 04:17:02;;;;;;;6.97;4.30;;;;;;;-0.46;64.97;100261.45;1685095;83;20967;-76
2022/01/30 04:19:44;;;;;;;9.28;4.55;;;;;;;-0.46;64.91;100261.00;1696136;83;21511;-76
2022/01/30 04:22:29;;;;;;;8.50;4.62;;;;;;;-0.43;64.75;100262.21;1696542;84;20884;-76
2022/01/30 04:25:15;;;;;;;7.33;4.25;;;;;;;-0.41;64.61;100258.33;1696257;84;21577;-76
2022/01/30 04:27:44;;;;;;;8.30;4.58;;;;;;;-0.40;64.58;100260.45;1686699;85;21198;-76
2022/01/30 04:30:16;;;;;;;7.08;3.72;;;;;;;-0.41;64.33;100253.17;1688039;85;20929;-76
2022/01/30 04:33:02;;;;;;;4.72;3.95;;;;;;;-0.44;64.33;100252.80;1690803;83;20924;-77
2022/01/30 04:35:32;;;;;;;6.10;3.83;;;;;;;-0.47;64.32;100246.44;1686476;85;20940;-75
2022/01/30 04:55:56;;;;;;;3.25;2.95;;;;;;;-0.65;65.60;100235.20;1669196;85;21179;-74
2022/01/30 04:58:14;;;;;;;4.17;2.72;;;;;;;-0.66;65.91;100230.95;1644227;86;20966;-74
2022/01/30 05:01:36;;;;;;;3.95;2.67;;;;;;;-0.69;66.24;100228.41;1667450;86;20981;-75
2022/01/30 05:06:18;;;;;;;2.47;1.95;;;;;;;-0.73;66.89;100224.23;1635584;85;21511;-75
2022/01/30 05:08:49;;;;;;;4.70;2.12;;;;;;;-0.80;67.34;100223.92;1668951;86;21993;-75
2022/01/30 05:11:18;;;;;;;3.90;2.65;;;;;;;-0.88;67.70;100224.92;1669278;85;21159;-75
2022/01/30 05:13:49;;;;;;;3.62;2.75;;;;;;;-0.95;68.00;100218.66;1668762;84;20965;-75
2022/01/30 05:16:34;;;;;;;2.60;2.08;;;;;;;-1.02;68.30;100232.08;1627658;86;21103;-74
2022/01/30 05:19:20;;;;;;;2.87;2.55;;;;;;;-1.08;68.61;100225.30;1675926;85;20983;-75
2022/01/30 05:21:57;;;;;;;3.65;2.80;;;;;;;-1.14;68.96;100228.43;1673408;84;21016;-75
2022/01/30 05:24:43;;;;;;;5.42;2.98;;;;;;;-1.20;69.26;100224.27;1675844;85;21047;-76
2022/01/30 05:27:15;;;;;;;4.22;2.92;;;;;;;-1.27;69.66;100209.38;1714971;81;21491;-78
2022/01/30 05:29:47;;;;;;;4.22;3.15;;;;;;;-1.32;69.86;100215.02;1714452;82;20976;-79
2022/01/30 05:32:17;;;;;;;6.10;3.08;;;;;;;-1.37;70.17;100210.84;1736326;81;21035;-74
2022/01/30 05:34:46;;;;;;;6.42;3.58;;;;;;;-1.41;70.61;100214.34;1736723;81;21164;-76
2022/01/30 05:37:22;;;;;;;4.20;3.05;;;;;;;-1.46;70.70;100202.86;1736352;82;21402;-76
2022/01/30 05:40:09;;;;;;;5.97;3.47;;;;;;;-1.50;71.01;100212.33;1736493;81;20881;-77
2022/01/30 05:42:54;;;;;;;9.60;4.12;;;;;;;-1.53;71.27;100214.97;1692428;82;21449;-75
2022/01/30 05:45:40;;;;;;;4.92;4.03;;;;;;;-1.57;71.49;100211.19;1692459;82;20984;-76
2022/01/30 05:48:20;;;;;;;5.00;3.50;;;;;;;-1.60;71.63;100207.37;1708892;82;23817;-75
2022/01/30 05:50:55;;;;;;;6.40;4.60;;;;;;;-1.63;71.82;100203.58;1735463;82;20984;-76
2022/01/30 05:53:30;;;;;;;7.53;3.90;;;;;;;-1.67;71.95;100197.21;1736723;80;20873;-76
2022/01/30 05:55:59;;;;;;;5.28;3.52;;;;;;;-1.71;72.05;100196.00;1735920;82;21115;-75
2022/01/30 05:58:25;;;;;;;8.45;5.33;;;;;;;-1.75;72.18;100191.34;1736881;82;21465;-75
2022/01/30 06:01:11;;;;;;;6.95;4.20;;;;;;;-1.77;72.30;100182.80;1736330;81;21546;-76
2022/01/30 06:03:39;;;;;;;6.87;3.60;;;;;;;-1.79;72.41;100186.28;1736055;82;21347;-75
2022/01/30 06:06:08;;;;;;;5.37;3.95;;;;;;;-1.81;72.43;100171.31;1736118;82;20972;-76
2022/01/30 06:08:45;;;;;;;6.45;4.35;;;;;;;-1.82;72.41;100170.48;1736417;82;20900;-75
2022/01/30 06:11:10;;;;;;;11.28;4.50;;;;;;;-1.81;72.40;100170.03;1736466;81;20885;-76
2022/01/30 06:13:39;;;;;;;5.65;4.40;;;;;;;-1.81;72.28;100170.03;1701356;83;21121;-76
2022/01/30 06:16:06;;;;;;;7.75;3.67;;;;;;;-1.80;72.24;100170.02;1695469;84;21011;-76
2022/01/30 06:18:33;;;;;;;7.97;4.17;;;;;;;-1.72;72.09;100162.16;1696649;84;21592;-73
2022/01/30 06:21:02;;;;;;;6.00;4.85;;;;;;;-1.59;71.91;100158.50;1676557;84;21436;-75
2022/01/30 06:23:32;;;;;;;8.45;4.50;;;;;;;-1.35;71.39;100151.23;1687298;84;20941;-76
2022/01/30 06:26:17;;;;;;;10.53;5.87;;;;;;;-1.21;70.70;100146.66;1696167;83;21186;-75
2022/01/30 06:29:04;;;;;;;7.80;4.67;;;;;;;-1.20;70.10;100134.22;1696229;83;21031;-74
2022/01/30 06:31:53;;;;;;;8.45;5.35;;;;;;;-1.25;69.86;100116.28;1696259;83;21374;-76
2022/01/30 06:34:38;;;;;;;10.43;5.90;;;;;;;-1.31;69.61;100127.16;1696374;84;21426;-76
2022/01/30 06:37:07;;;;;;;7.53;5.70;;;;;;;-1.38;69.49;100116.55;1676290;83;20976;-77
2022/01/30 06:39:35;;;;;;;8.45;5.25;;;;;;;-1.42;69.50;100124.78;1694326;84;21147;-78
2022/01/30 06:42:07;;;;;;;9.40;5.62;;;;;;;-1.48;69.43;100109.47;1695965;83;20963;-78
2022/01/30 06:44:50;;;;;;;7.75;5.03;;;;;;;-1.52;69.59;100112.52;1696425;84;20936;-76
2022/01/30 06:47:41;;;;;;;9.20;6.10;;;;;;;-1.49;69.57;100106.05;1671739;84;20932;-78
2022/01/30 06:50:10;;;;;;;10.85;7.03;;;;;;;-1.43;69.58;100087.52;1662636;84;20952;-79
2022/01/30 06:52:55;;;;;;;9.50;5.47;;;;;;;-1.35;69.16;100082.63;1696375;84;21150;-79
2022/01/30 06:55:30;;;;;;;9.08;4.47;;;;;;;-1.27;68.74;100073.05;1692209;84;21450;-78
2022/01/30 06:58:09;;;;;;;7.95;4.55;;;;;;;-1.21;68.19;100069.93;1692320;84;20959;-77
2022/01/30 07:00:41;;;;;;;6.92;4.42;;;;;;;-1.19;67.91;100060.46;1681067;83;20958;-78
2022/01/30 07:03:27;;;;;;;6.40;5.28;;;;;;;-1.19;67.00;100056.16;1697714;83;20971;-77
2022/01/30 07:06:13;;;;;;;11.60;5.90;;;;;;;-1.15;67.19;100056.50;1698041;84;21532;-79
2022/01/30 07:08:41;;;;;;;8.80;5.22;;;;;;;-1.12;66.81;100053.02;1696328;84;21546;-78
2022/01/30 07:11:08;;;;;;;7.78;5.17;;;;;;;-1.13;66.85;100043.62;1696328;83;21418;-78
2022/01/30 07:13:35;;;;;;;9.18;7.17;;;;;;;-1.14;66.68;100045.31;1696552;84;20967;-76
2022/01/30 07:16:03;;;;;;;8.68;5.80;;;;;;;-1.12;66.62;100037.13;1696186;84;20983;-73
2022/01/30 07:18:30;;;;;;;7.75;5.47;;;;;;;-1.10;66.56;100034.09;1696210;84;21142;-78
2022/01/30 07:20:57;;;;;;;7.55;5.55;;;;;;;-1.05;66.27;100027.55;1696339;84;21020;-73
2022/01/30 07:23:24;;;;;;;8.03;4.72;;;;;;;-1.01;66.06;100025.77;1696260;84;21463;-78
2022/01/30 07:25:51;;;;;;;9.45;5.00;;;;;;;-0.98;65.85;100011.54;1696592;83;21394;-83
2022/01/30 07:28:18;;;;;;;7.87;4.78;;;;;;;-0.95;65.68;100013.61;1696094;83;21339;-76
2022/01/30 07:30:45;;;;;;;11.90;7.05;;;;;;;-0.92;65.10;100010.12;1696417;83;21101;-77
2022/01/30 07:33:12;;;;;;;12.10;6.30;;;;;;;-0.91;65.17;100003.66;1696398;84;20952;-75
2022/01/30 07:35:42;;;;;;;12.47;6.47;;;;;;;-0.89;65.14;99998.04;1696275;84;20924;-75
2022/01/30 07:38:09;;;;;;;12.40;5.83;;;;;;;-0.85;65.08;99993.20;1696402;83;20970;-78
2022/01/30 07:41:50;;;;;;;7.50;5.62;;;;;;;-0.69;64.63;99984.70;1816604;78;23088;-77
2022/01/30 07:44:17;;;;;;;7.62;5.00;;;;;;;-0.66;64.40;99983.33;1789947;80;20935;-76
2022/01/30 07:46:44;;;;;;;10.00;5.85;;;;;;;-0.56;63.89;99980.07;1789873;80;21463;-79
2022/01/30 07:49:14;;;;;;;10.50;5.33;;;;;;;-0.51;63.65;99969.66;1789772;80;21394;-77
2022/01/30 07:51:41;;;;;;;8.33;4.70;;;;;;;-0.50;63.34;99973.48;1789897;79;21425;-76
2022/01/30 07:54:09;;;;;;;10.03;4.65;;;;;;;-0.48;63.36;99976.03;1789434;80;21481;-74
2022/01/30 07:56:41;;;;;;;7.58;4.25;;;;;;;-0.44;63.34;99958.34;1789514;80;20892;-78
2022/01/30 07:59:08;;;;;;;9.50;4.17;;;;;;;-0.41;63.19;99949.23;1789661;80;21487;-76
2022/01/30 08:01:37;;;;;;;8.50;5.10;;;;;;;-0.38;62.90;99949.14;1789876;80;21418;-76
2022/01/30 08:04:06;;;;;;;7.87;4.50;;;;;;;-0.38;62.78;99944.44;1788703;80;21060;-76
2022/01/30 08:06:33;;;;;;;6.80;4.62;;;;;;;-0.36;63.02;99940.09;1789632;80;20880;-77
2022/01/30 08:09:00;;;;;;;8.68;5.15;;;;;;;-0.34;63.03;99937.04;1789796;80;20983;-76
2022/01/30 08:11:29;;;;;;;9.23;4.40;;;;;;;-0.34;62.86;99942.19;1789522;80;20919;-76
2022/01/30 08:13:58;;;;;;;6.92;4.55;;;;;;;-0.32;63.03;99931.41;1789375;80;20935;-75
2022/01/30 08:16:27;;;;;;;10.00;4.62;;;;;;;-0.28;63.09;99925.29;1789678;79;20884;-73
2022/01/30 08:18:54;;;;;;;8.75;5.33;;;;;;;-0.26;63.05;99909.35;1755035;81;20995;-76
2022/01/30 08:21:22;;;;;;;8.90;4.53;;;;;;;-0.20;63.19;99913.06;1715146;82;20932;-73
2022/01/30 08:23:50;;;;;;;8.93;5.58;;;;;;;-0.16;62.92;99903.49;1724901;82;21101;-75
2022/01/30 08:26:20;;;;;;;9.60;4.60;;;;;;;-0.14;63.05;99910.74;1754591;81;20892;-76
2022/01/30 08:28:50;;;;;;;6.72;4.58;;;;;;;-0.13;63.38;99904.27;1754971;81;20971;-76
2022/01/30 08:31:18;;;;;;;6.65;4.42;;;;;;;-0.11;63.79;99902.49;1754145;81;20947;-72
2022/01/30 08:33:45;;;;;;;11.73;4.20;;;;;;;-0.08;64.23;99904.14;1754799;81;20892;-73
2022/01/30 08:36:21;;;;;;;7.20;5.22;;;;;;;-0.03;64.56;99893.24;1754871;81;21031;-77
2022/01/30 08:38:44;;;;;;;10.30;5.10;;;;;;;0.06;64.74;99894.27;1721022;81;20904;-75
2022/01/30 08:41:10;;;;;;;5.50;3.95;;;;;;;0.14;65.02;99894.06;1744862;81;20936;-76
2022/01/30 08:43:37;;;;;;;9.28;4.53;;;;;;;0.19;65.39;99889.61;1738867;82;21651;-77
2022/01/30 08:46:04;;;;;;;9.35;5.17;;;;;;;0.24;65.67;99876.58;1738582;82;21032;-75
2022/01/30 08:48:33;;;;;;;7.50;3.95;;;;;;;0.31;65.91;99881.95;1738968;82;21167;-77
2022/01/30 08:51:00;;;;;;;10.50;4.85;;;;;;;0.38;66.15;99871.42;1738397;82;20941;-77
2022/01/30 08:53:27;;;;;;;9.00;4.08;;;;;;;0.49;66.21;99869.81;1738032;82;21490;-79
2022/01/30 08:55:54;;;;;;;7.10;3.35;;;;;;;0.56;66.19;99875.17;1738169;82;20932;-84
2022/01/30 08:58:21;;;;;;;6.15;4.47;;;;;;;0.59;66.12;99845.39;1738615;82;20960;-79
2022/01/30 09:00:51;;;;;;;6.35;3.55;;;;;;;0.61;66.44;99838.45;1738008;82;21407;-81
2022/01/30 09:03:20;;;;;;;10.40;4.00;;;;;;;0.68;66.44;99835.23;1738195;82;20932;-78
2022/01/30 09:05:49;;;;;;;6.47;4.15;;;;;;;0.72;66.67;99835.98;1774896;80;21421;-77
2022/01/30 09:08:17;;;;;;;8.23;4.17;;;;;;;0.76;66.78;99835.84;1775647;80;20932;-77
2022/01/30 09:10:44;;;;;;;7.97;4.50;;;;;;;0.80;66.68;99830.11;1775085;80;20924;-79
2022/01/30 09:13:12;;;;;;;7.87;4.30;;;;;;;0.85;66.83;99833.41;1775012;80;21936;-80
2022/01/30 09:15:43;;;;;;;8.00;4.58;;;;;;;0.91;66.75;99823.31;1775532;80;20971;-80
2022/01/30 09:18:11;;;;;;;7.60;4.30;;;;;;;1.00;66.72;99824.30;1774837;80;20980;-80
2022/01/30 09:20:41;;;;;;;5.60;3.75;;;;;;;1.07;66.55;99812.02;1774979;80;20972;-77
2022/01/30 09:23:10;;;;;;;7.10;3.80;;;;;;;1.12;66.05;99808.40;1702321;84;21000;-74
2022/01/30 09:25:38;;;;;;;5.92;4.03;;;;;;;1.19;65.77;99793.54;1711854;83;22149;-76
2022/01/30 09:28:05;;;;;;;5.67;3.60;;;;;;;1.27;65.65;99787.66;1774874;80;20881;-78
2022/01/30 09:30:33;;;;;;;7.20;3.17;;;;;;;1.35;65.01;99787.38;1775383;80;20877;-79
2022/01/30 09:33:03;;;;;;;4.17;3.50;;;;;;;1.41;64.42;99780.71;1775047;80;20884;-79
2022/01/30 09:35:30;;;;;;;5.40;3.20;;;;;;;1.43;64.02;99772.00;1775429;80;21470;-78
2022/01/30 09:37:58;;;;;;;5.90;3.67;;;;;;;1.46;63.80;99777.50;1775273;80;21142;-78
2022/01/30 09:40:24;;;;;;;6.33;4.20;;;;;;;1.49;64.28;99783.00;1773946;80;20995;-79
2022/01/30 09:42:51;;;;;;;6.53;4.25;;;;;;;1.53;64.65;99761.33;1769039;80;20896;-80
2022/01/30 09:45:20;;;;;;;6.00;3.50;;;;;;;1.60;65.04;99766.66;1768519;81;20921;-80
2022/01/30 09:47:48;;;;;;;5.92;3.70;;;;;;;1.64;65.29;99760.48;1768493;81;20987;-80
2022/01/30 09:50:17;;;;;;;9.10;4.78;;;;;;;1.70;65.59;99759.43;1768447;81;21797;-79
2022/01/30 09:52:45;;;;;;;6.22;3.80;;;;;;;1.74;65.71;99744.20;1768144;81;20940;-82
2022/01/30 09:55:12;;;;;;;6.78;4.50;;;;;;;1.78;65.92;99738.86;1768336;81;20984;-75
2022/01/30 09:57:40;;;;;;;9.65;4.15;;;;;;;1.84;65.89;99737.31;1768249;81;20937;-79
2022/01/30 10:00:08;;;;;;;5.90;3.50;;;;;;;1.89;65.73;99730.70;1740902;81;21027;-82
2022/01/30 10:02:36;;;;;;;6.55;3.98;;;;;;;1.93;65.63;99724.48;1768176;81;21160;-78
2022/01/30 10:05:07;;;;;;;5.30;3.35;;;;;;;1.97;65.44;99710.99;1741060;81;20909;-79
2022/01/30 10:07:51;;;;;;;8.68;4.80;;;;;;;1.98;65.34;99708.36;1768397;80;21418;-76
2022/01/30 10:10:18;;;;;;;6.12;3.65;;;;;;;2.05;65.17;99705.91;1769017;81;20968;-78
2022/01/30 10:13:14;;;;;;;6.97;3.80;;;;;;;2.08;65.20;99694.14;1768500;81;20897;-75
2022/01/30 10:15:56;;;;;;;6.75;3.47;;;;;;;2.13;65.13;99689.23;1768756;80;20983;-77
2022/01/30 10:18:33;;;;;;;12.63;5.20;;;;;;;2.18;64.88;99687.30;1768782;81;20889;-78
2022/01/30 10:21:01;;;;;;;8.45;4.55;;;;;;;2.23;64.95;99675.88;1769112;81;21502;-78
2022/01/30 10:23:34;;;;;;;7.15;4.50;;;;;;;2.27;64.50;99669.68;1768744;81;21031;-78
2022/01/30 10:26:01;;;;;;;9.05;4.53;;;;;;;2.30;64.39;99665.28;1768759;80;20924;-78
2022/01/30 10:28:36;;;;;;;9.18;4.80;;;;;;;2.28;63.86;99655.83;1769371;80;21050;-77
2022/01/30 10:31:05;;;;;;;10.93;5.72;;;;;;;2.26;63.99;99649.04;1766915;81;21402;-78
2022/01/30 10:34:17;;;;;;;6.97;4.60;;;;;;;2.22;64.06;99643.17;1769892;78;20948;-84
2022/01/30 10:36:37;;;;;;;6.00;3.47;;;;;;;2.20;63.97;99645.41;1765638;81;20909;-84
2022/01/30 10:39:32;;;;;;;;;;;;;;;;;;;;;
2022/01/30 10:41:57;;;;;;;6.03;3.72;;;;;;;2.12;63.95;99623.75;1762548;80;21149;-84
2022/01/30 10:44:34;;;;;;;5.75;3.30;;;;;;;2.08;64.37;99629.49;1768511;80;20943;-83
2022/01/30 10:47:24;;;;;;;4.95;3.25;;;;;;;2.04;64.54;99630.97;1764845;81;20925;-84
2022/01/30 10:50:24;;;;;;;5.40;3.58;;;;;;;2.03;64.64;99609.45;1764828;81;20968;-83
2022/01/30 10:53:04;;;;;;;4.42;3.47;;;;;;;2.00;64.53;99607.01;1757040;81;20921;-78
2022/01/30 10:55:44;;;;;;;7.55;4.45;;;;;;;1.97;64.84;99589.02;1766162;80;21132;-82
2022/01/30 10:58:16;;;;;;;9.58;4.47;;;;;;;1.96;64.78;99592.52;1768181;81;20857;-78
2022/01/30 11:00:59;;;;;;;10.82;5.65;;;;;;;1.95;65.11;99595.16;1768775;81;20929;-76
2022/01/30 11:03:50;;;;;;;6.42;4.05;;;;;;;1.97;65.13;99592.06;1769053;80;20897;-77
2022/01/30 11:06:15;;;;;;;6.85;4.90;;;;;;;2.01;65.10;99583.28;1767713;80;20892;-78
2022/01/30 11:08:47;;;;;;;10.72;5.05;;;;;;;2.05;65.09;99594.72;1768046;81;21976;-78
2022/01/30 11:14:15;;;;;;;9.43;4.85;;;;;;;2.13;65.17;99591.80;1767908;81;20865;-79
2022/01/30 11:19:18;;;;;;;5.97;4.47;;;;;;;2.16;65.75;99574.88;1768391;81;21477;-78
2022/01/30 11:21:58;;;;;;;7.03;4.72;;;;;;;2.19;65.83;99568.73;1768578;81;21140;-84
2022/01/30 11:24:25;;;;;;;12.95;4.67;;;;;;;2.19;66.06;99567.44;1739797;81;20924;-79
2022/01/30 11:26:52;;;;;;;9.00;5.03;;;;;;;2.20;66.25;99558.33;1765997;81;20873;-81
2022/01/30 11:29:23;;;;;;;9.53;4.55;;;;;;;2.24;66.53;99561.61;1768365;81;20897;-84
2022/01/30 11:31:52;;;;;;;7.78;4.40;;;;;;;2.27;66.71;99548.56;1767692;80;21480;-82
2022/01/30 11:34:20;;;;;;;7.90;5.08;;;;;;;2.28;66.97;99530.38;1768076;80;21441;-80
2022/01/30 11:36:51;;;;;;;12.13;6.42;;;;;;;2.31;67.22;99536.31;1768234;81;21004;-81
2022/01/30 11:39:20;;;;;;;8.73;5.05;;;;;;;2.32;67.46;99525.91;1740769;81;21402;-81
2022/01/30 11:42:18;;;;;;;9.25;4.45;;;;;;;2.35;67.73;99528.36;1767967;80;21041;-82
2022/01/30 11:44:49;;;;;;;8.68;4.65;;;;;;;2.40;67.73;99523.84;1768432;81;20928;-81
2022/01/30 11:47:18;;;;;;;10.75;5.05;;;;;;;2.44;67.83;99525.82;1740409;81;21177;-81
2022/01/30 11:50:04;;;;;;;7.53;4.92;;;;;;;2.42;68.00;99514.27;1767892;80;20909;-82
2022/01/30 11:52:56;;;;;;;8.95;4.72;;;;;;;2.40;68.23;99514.78;1768260;81;21366;-82
2022/01/30 11:55:54;;;;;;;7.17;5.40;;;;;;;2.40;68.33;99504.87;1766950;80;20865;-80
2022/01/30 11:58:43;;;;;;;6.58;4.55;;;;;;;2.36;68.25;99502.89;1768017;80;20928;-81
2022/01/30 12:01:36;;;;;;;9.43;4.75;;;;;;;2.27;68.34;99493.78;1767882;81;20873;-83
2022/01/30 12:04:12;;;;;;;7.28;4.53;;;;;;;2.23;68.52;99488.81;1768264;81;20925;-83
2022/01/30 12:06:53;;;;;;;;;;;;;;;;;;;;;
2022/01/30 12:09:26;;;;;;;;;;;;;;;2.19;68.46;99480.80;1759395;81;20960;-83
2022/01/30 12:11:59;;;;;;;7.85;4.83;;;;;;;2.16;68.40;99459.80;1767774;81;20382;-73
2022/01/30 12:14:32;;;;;;;12.63;5.55;;;;;;;2.13;68.56;99451.32;1768029;80;21143;-75
2022/01/30 12:17:02;;;;;;;7.00;4.40;;;;;;;2.10;68.53;99467.81;1768170;80;20928;-75
2022/01/30 12:19:39;;;;;;;10.70;5.42;;;;;;;2.10;68.53;99451.01;1768156;80;21510;-74
2022/01/30 12:22:29;;;;;;;8.85;5.70;;;;;;;2.11;68.72;99457.02;1768518;80;20857;-75
2022/01/30 12:25:22;;;;;;;7.58;5.65;;;;;;;2.11;68.91;99463.48;1767999;81;21094;-75
2022/01/30 12:27:50;;;;;;;9.70;6.05;;;;;;;2.08;69.26;99458.83;1740277;81;21227;-75
2022/01/30 12:30:36;;;;;;;10.85;5.65;;;;;;;2.06;69.30;99458.51;1768422;81;20838;-73
2022/01/30 12:33:35;;;;;;;8.20;4.87;;;;;;;2.03;69.56;99456.07;1767285;81;20976;-74
2022/01/30 12:36:04;;;;;;;8.60;5.87;;;;;;;1.98;69.81;99458.86;1733780;81;20975;-73
2022/01/30 12:38:34;;;;;;;14.43;6.65;;;;;;;1.93;70.04;99454.31;1693738;82;21071;-70
2022/01/30 12:41:03;;;;;;;10.48;6.15;;;;;;;1.92;70.24;99454.41;1734494;81;20969;-71
2022/01/30 12:43:31;;;;;;;8.80;5.45;;;;;;;1.85;70.43;99457.25;1742628;82;20914;-68
2022/01/30 12:46:06;;;;;;;10.13;6.17;;;;;;;1.84;70.87;99451.67;1746455;82;21380;-70
2022/01/30 12:48:33;;;;;;;14.13;7.12;;;;;;;1.82;70.97;99449.64;1746471;82;20882;-69
2022/01/30 12:51:04;;;;;;;9.48;5.37;;;;;;;1.80;71.09;99444.98;1746446;82;21434;-70
2022/01/30 12:53:31;;;;;;;11.05;6.25;;;;;;;1.78;70.83;99444.64;1746106;82;21408;-72
2022/01/30 12:55:59;;;;;;;9.45;5.92;;;;;;;1.76;70.79;99440.02;1746415;82;20966;-70